Time;durP1;ratioP1;P1;durP2;ratioP2;P2;SDS_P1;SDS_P2;PMS_P1;PMS_P2;Temp;Humidity;BMP_temperature;BMP_pressure;BME280_temperature;BME280_humidity;BME280_pressure;Samples;Min_cycle;Max_cycle;Signal;HPM_P1;HPM_P2
2022/03/13 00:00:12;;;;;;;19.20;12.38;;;3.40;99.90;;;;;;5033331;28;20491;-71
2022/03/13 00:02:40;;;;;;;15.60;11.77;;;3.40;99.90;;;;;;5032233;28;20030;-71
2022/03/13 00:05:11;;;;;;;17.35;13.05;;;3.40;99.90;;;;;;5033881;28;20041;-74
2022/03/13 00:07:39;;;;;;;16.15;11.85;;;3.30;99.90;;;;;;5033684;28;20054;-72
2022/03/13 00:10:05;;;;;;;20.20;13.35;;;3.30;99.90;;;;;;5042970;28;20056;-72
2022/03/13 00:12:32;;;;;;;26.67;13.73;;;3.20;99.90;;;;;;5052149;28;20043;-73
2022/03/13 00:15:09;;;;;;;20.55;12.32;;;3.00;99.90;;;;;;5053385;28;20491;-73
2022/03/13 00:17:35;;;;;;;19.90;14.18;;;2.90;99.90;;;;;;5052033;28;20033;-72
2022/03/13 00:20:04;;;;;;;16.80;12.63;;;2.80;99.90;;;;;;5051903;28;20093;-72
2022/03/13 00:22:31;;;;;;;17.67;11.40;;;2.70;99.90;;;;;;5052962;28;20021;-73
2022/03/13 00:25:00;;;;;;;15.50;11.77;;;2.80;99.90;;;;;;5051433;28;20093;-72
2022/03/13 00:27:26;;;;;;;17.92;12.25;;;3.10;99.90;;;;;;5052645;28;20098;-71
2022/03/13 00:29:52;;;;;;;16.92;11.40;;;3.20;99.90;;;;;;5053209;28;20029;-72
2022/03/13 00:32:19;;;;;;;17.90;11.13;;;3.20;99.90;;;;;;5064312;28;20060;-72
2022/03/13 00:34:44;;;;;;;17.20;12.82;;;3.20;99.90;;;;;;5064440;28;20419;-72
2022/03/13 00:37:10;;;;;;;15.35;12.45;;;3.30;99.90;;;;;;5063823;28;20020;-71
2022/03/13 00:39:39;;;;;;;18.08;12.55;;;3.20;99.90;;;;;;5058497;28;20138;-71
2022/03/13 00:42:05;;;;;;;23.40;12.90;;;3.10;99.90;;;;;;5068275;28;20120;-72
2022/03/13 00:44:31;;;;;;;15.32;11.73;;;3.10;99.90;;;;;;5053061;28;20044;-72
2022/03/13 00:46:56;;;;;;;17.73;11.20;;;3.00;99.90;;;;;;5051123;28;20021;-72
2022/03/13 00:49:22;;;;;;;16.05;11.07;;;3.00;99.90;;;;;;5052558;28;20435;-72
2022/03/13 00:51:48;;;;;;;17.10;11.15;;;3.00;99.90;;;;;;5052412;28;20055;-71
2022/03/13 00:54:13;;;;;;;22.83;12.65;;;3.00;99.90;;;;;;5052832;28;20066;-71
2022/03/13 00:56:39;;;;;;;19.38;11.38;;;3.20;99.90;;;;;;5051541;28;20028;-73
2022/03/13 00:59:05;;;;;;;16.98;10.80;;;3.10;99.90;;;;;;5068071;28;20021;-72
2022/03/13 01:01:31;;;;;;;19.67;13.45;;;3.10;99.80;;;;;;5051436;28;20025;-71
2022/03/13 01:03:56;;;;;;;15.38;10.60;;;3.00;99.90;;;;;;5050859;28;20021;-72
2022/03/13 01:06:22;;;;;;;17.65;12.35;;;2.90;99.90;;;;;;5050555;28;20443;-72
2022/03/13 01:08:49;;;;;;;14.18;10.98;;;2.90;99.90;;;;;;5051175;28;20127;-72
2022/03/13 01:11:18;;;;;;;12.40;10.40;;;2.80;99.90;;;;;;5047493;28;20044;-70
2022/03/13 01:13:45;;;;;;;20.70;12.38;;;2.80;99.90;;;;;;5030736;28;20033;-71
2022/03/13 01:16:11;;;;;;;18.10;11.40;;;2.80;99.90;;;;;;5032076;28;20052;-73
2022/03/13 01:18:51;;;;;;;15.50;11.95;;;2.80;99.90;;;;;;5030523;28;20653;-73
2022/03/13 01:21:17;;;;;;;16.27;11.13;;;2.80;99.90;;;;;;5032067;28;20149;-73
2022/03/13 01:24:04;;;;;;;15.38;11.57;;;2.70;99.90;;;;;;5032036;28;20101;-71
2022/03/13 01:26:34;;;;;;;15.25;9.60;;;2.70;99.90;;;;;;5031833;28;20084;-71
2022/03/13 01:29:01;;;;;;;18.00;12.63;;;2.80;99.70;;;;;;5030543;28;20072;-72
2022/03/13 01:31:28;;;;;;;15.48;10.55;;;2.90;99.40;;;;;;5031360;28;20072;-72
2022/03/13 01:33:55;;;;;;;18.23;11.43;;;2.90;98.50;;;;;;5034967;28;20028;-72
2022/03/13 01:36:21;;;;;;;13.50;9.55;;;2.90;98.20;;;;;;5044122;28;20032;-72
2022/03/13 01:38:47;;;;;;;11.57;8.07;;;2.90;97.70;;;;;;5045783;28;20029;-72
2022/03/13 01:41:13;;;;;;;12.50;8.55;;;2.90;97.10;;;;;;5037488;28;20107;-72
2022/03/13 01:43:39;;;;;;;16.33;10.00;;;2.90;97.20;;;;;;5039783;28;20104;-73
2022/03/13 01:46:05;;;;;;;14.23;9.80;;;3.00;97.20;;;;;;5034027;28;20053;-72
2022/03/13 01:48:50;;;;;;;14.30;9.88;;;3.00;97.30;;;;;;5037167;28;20035;-74
2022/03/13 01:51:16;;;;;;;16.77;10.27;;;2.90;97.30;;;;;;5038845;28;20144;-71
2022/03/13 01:53:42;;;;;;;14.57;9.63;;;2.90;97.40;;;;;;5036240;28;20491;-71
2022/03/13 01:56:08;;;;;;;11.55;8.35;;;2.90;97.60;;;;;;5037682;28;20077;-71
2022/03/13 01:58:34;;;;;;;16.58;9.27;;;2.90;97.80;;;;;;5034880;28;20041;-71
2022/03/13 02:01:01;;;;;;;16.88;13.10;;;2.80;98.00;;;;;;5031324;28;20497;-71
2022/03/13 02:03:27;;;;;;;14.45;11.40;;;2.80;98.80;;;;;;5032248;28;20112;-72
2022/03/13 02:05:53;;;;;;;18.10;12.00;;;2.70;99.70;;;;;;5032633;28;20025;-73
2022/03/13 02:08:20;;;;;;;12.52;9.82;;;2.70;99.90;;;;;;5040158;28;20017;-72
2022/03/13 02:10:46;;;;;;;15.57;9.45;;;2.60;99.90;;;;;;5060813;28;20551;-72
2022/03/13 02:13:19;;;;;;;20.95;11.95;;;2.60;99.50;;;;;;5082076;28;20021;-72
2022/03/13 02:15:46;;;;;;;18.02;9.43;;;2.50;99.90;;;;;;5065837;28;20025;-72
2022/03/13 02:18:12;;;;;;;18.75;9.57;;;2.50;99.50;;;;;;5072461;28;20498;-72
2022/03/13 02:20:43;;;;;;;13.93;10.18;;;2.40;99.90;;;;;;5050502;28;20390;-72
2022/03/13 02:23:22;;;;;;;14.00;9.77;;;2.40;99.90;;;;;;5050986;28;20102;-71
2022/03/13 02:25:51;;;;;;;16.50;9.27;;;2.40;99.90;;;;;;5050925;28;20816;-73
2022/03/13 02:28:22;;;;;;;12.98;8.65;;;2.30;99.90;;;;;;5065920;28;20390;-71
2022/03/13 02:30:49;;;;;;;11.18;8.48;;;2.30;99.50;;;;;;5065476;28;20124;-72
2022/03/13 02:33:18;;;;;;;11.95;8.35;;;2.30;99.20;;;;;;5066869;28;20021;-72
2022/03/13 02:35:50;;;;;;;12.48;9.15;;;2.30;98.90;;;;;;5066556;28;20021;-72
2022/03/13 02:38:16;;;;;;;;;;;2.30;98.80;;;;;;5049564;28;20116;-72
2022/03/13 02:40:42;;;;;;;12.43;8.50;;;2.30;98.30;;;;;;5048635;28;20308;-71
2022/03/13 02:43:07;;;;;;;14.35;9.63;;;2.30;97.90;;;;;;5050352;28;20031;-72
2022/03/13 02:45:35;;;;;;;15.52;8.65;;;2.30;98.00;;;;;;5050629;28;20108;-72
2022/03/13 02:48:04;;;;;;;13.73;9.25;;;2.30;97.90;;;;;;5065115;28;20029;-70
2022/03/13 02:50:30;;;;;;;13.18;9.77;;;2.30;97.80;;;;;;5031297;28;20029;-72
2022/03/13 02:52:57;;;;;;;17.23;9.02;;;2.40;97.80;;;;;;5031091;28;20068;-72
2022/03/13 02:55:23;;;;;;;16.73;8.82;;;2.40;97.70;;;;;;5030103;28;20104;-72
2022/03/13 02:57:49;;;;;;;15.45;9.35;;;2.30;97.80;;;;;;5028416;28;20421;-71
2022/03/13 03:00:18;;;;;;;12.15;9.02;;;2.30;97.50;;;;;;5029400;28;20053;-71
2022/03/13 03:02:44;;;;;;;14.02;8.68;;;2.40;97.90;;;;;;5029677;28;20022;-71
2022/03/13 03:05:10;;;;;;;16.45;8.15;;;2.20;98.20;;;;;;5028278;28;20044;-72
2022/03/13 03:07:37;;;;;;;16.02;10.30;;;2.20;97.80;;;;;;5029752;28;20025;-71
2022/03/13 03:10:05;;;;;;;13.70;10.40;;;2.20;98.10;;;;;;5039139;28;20037;-72
2022/03/13 03:12:34;;;;;;;13.07;8.52;;;2.20;97.70;;;;;;5049775;28;20092;-73
2022/03/13 03:15:00;;;;;;;12.07;8.98;;;2.20;98.10;;;;;;5048777;28;20051;-70
2022/03/13 03:17:27;;;;;;;13.60;8.45;;;2.20;98.80;;;;;;5049843;28;20029;-72
2022/03/13 03:19:53;;;;;;;17.98;9.80;;;2.20;97.80;;;;;;5048405;28;20028;-72
2022/03/13 03:22:19;;;;;;;14.60;9.32;;;2.20;98.10;;;;;;5049451;28;20025;-71
2022/03/13 03:24:45;;;;;;;13.15;8.75;;;2.20;97.70;;;;;;5065143;28;20059;-72
2022/03/13 03:27:11;;;;;;;11.27;8.13;;;2.10;98.00;;;;;;5049506;28;20025;-71
2022/03/13 03:29:37;;;;;;;17.33;9.43;;;2.00;98.20;;;;;;5048242;28;20029;-71
2022/03/13 03:32:03;;;;;;;10.45;7.95;;;2.00;98.10;;;;;;5050333;28;20104;-72
2022/03/13 03:34:29;;;;;;;12.48;8.25;;;2.00;97.80;;;;;;5053649;28;20075;-73
2022/03/13 03:36:58;;;;;;;11.82;8.93;;;1.90;97.70;;;;;;5053999;28;20053;-72
2022/03/13 03:39:26;;;;;;;13.80;9.07;;;1.90;97.80;;;;;;5055260;28;20063;-72
2022/03/13 03:41:53;;;;;;;19.10;14.82;;;1.90;97.90;;;;;;5070516;28;20493;-72
2022/03/13 03:44:22;;;;;;;15.77;10.25;;;1.90;97.70;;;;;;5061723;28;20024;-72
2022/03/13 03:46:49;;;;;;;13.32;9.32;;;1.80;97.50;;;;;;5061922;28;20036;-72
2022/03/13 03:49:15;;;;;;;16.67;10.13;;;1.80;97.60;;;;;;5067495;28;20080;-72
2022/03/13 03:51:43;;;;;;;15.43;8.52;;;1.80;97.80;;;;;;5053884;28;20025;-72
2022/03/13 03:54:09;;;;;;;14.52;9.23;;;1.70;97.80;;;;;;5053564;28;20131;-71
2022/03/13 03:56:35;;;;;;;12.40;8.88;;;1.80;97.70;;;;;;5051660;28;20031;-73
2022/03/13 03:59:01;;;;;;;16.73;9.13;;;1.70;97.70;;;;;;5052961;28;20534;-71
2022/03/13 04:01:28;;;;;;;12.07;8.93;;;1.70;97.80;;;;;;5052825;28;20105;-72
2022/03/13 04:03:54;;;;;;;10.18;8.23;;;1.70;97.70;;;;;;5052746;28;20032;-71
2022/03/13 04:06:20;;;;;;;11.30;8.80;;;1.70;97.70;;;;;;5051399;28;20033;-71
2022/03/13 04:08:46;;;;;;;11.93;7.78;;;1.70;97.80;;;;;;5051422;28;20108;-71
2022/03/13 04:11:12;;;;;;;13.07;7.43;;;1.70;97.90;;;;;;5051529;28;20060;-73
2022/03/13 04:13:39;;;;;;;11.38;8.80;;;1.70;98.00;;;;;;5053497;28;20187;-74
2022/03/13 04:16:09;;;;;;;13.23;8.65;;;1.60;98.10;;;;;;5052809;28;20045;-72
2022/03/13 04:18:36;;;;;;;12.60;9.45;;;1.60;98.40;;;;;;5053001;28;20055;-72
2022/03/13 04:21:03;;;;;;;10.35;7.80;;;1.60;98.40;;;;;;5068016;28;20061;-73
2022/03/13 04:23:30;;;;;;;16.85;9.38;;;1.60;98.50;;;;;;5052313;28;20017;-72
2022/03/13 04:25:56;;;;;;;13.23;8.48;;;1.50;98.60;;;;;;5052125;28;20021;-72
2022/03/13 04:28:22;;;;;;;10.07;8.57;;;1.60;98.90;;;;;;5050937;28;20082;-72
2022/03/13 04:30:52;;;;;;;13.77;9.85;;;1.50;98.80;;;;;;5052664;28;20398;-72
2022/03/13 04:33:18;;;;;;;11.30;8.63;;;1.50;99.10;;;;;;5053025;28;20025;-71
2022/03/13 04:35:44;;;;;;;14.20;9.20;;;1.50;99.50;;;;;;5068459;28;20036;-72
2022/03/13 04:38:11;;;;;;;12.02;8.50;;;1.40;99.10;;;;;;5053194;28;20387;-72
2022/03/13 04:40:36;;;;;;;19.83;9.40;;;1.40;99.20;;;;;;5053169;28;20513;-72
2022/03/13 04:43:03;;;;;;;15.95;10.43;;;1.40;99.50;;;;;;5053173;28;20017;-72
2022/03/13 04:45:29;;;;;;;12.73;8.20;;;1.40;99.30;;;;;;5053605;28;20024;-72
2022/03/13 04:47:55;;;;;;;11.68;7.38;;;1.40;99.20;;;;;;5052365;28;20021;-72
2022/03/13 04:50:21;;;;;;;10.30;7.63;;;1.40;99.50;;;;;;5053073;28;20545;-72
2022/03/13 04:52:47;;;;;;;11.85;7.90;;;1.40;99.20;;;;;;5053817;28;20067;-72
2022/03/13 04:55:13;;;;;;;14.38;8.30;;;1.30;99.40;;;;;;5052934;28;20048;-71
2022/03/13 04:57:39;;;;;;;13.88;8.57;;;1.30;99.30;;;;;;5051534;28;20035;-71
2022/03/13 05:00:08;;;;;;;16.15;9.35;;;1.30;99.60;;;;;;5067642;28;20120;-72
2022/03/13 05:02:34;;;;;;;17.48;8.43;;;1.30;99.50;;;;;;5067965;28;20021;-71
2022/03/13 05:05:00;;;;;;;14.80;9.40;;;1.30;99.60;;;;;;5067770;28;20108;-72
2022/03/13 05:07:26;;;;;;;13.52;9.60;;;1.40;99.70;;;;;;5052278;28;20021;-71
2022/03/13 05:09:52;;;;;;;9.80;7.50;;;1.40;99.60;;;;;;5052276;28;20045;-73
2022/03/13 05:12:21;;;;;;;14.07;9.02;;;1.40;99.50;;;;;;5051191;28;20071;-72
2022/03/13 05:14:47;;;;;;;9.98;8.35;;;1.40;99.40;;;;;;5052739;28;20033;-73
2022/03/13 05:17:13;;;;;;;14.23;9.23;;;1.30;99.40;;;;;;5050559;28;20104;-71
2022/03/13 05:19:39;;;;;;;14.30;8.27;;;1.30;99.60;;;;;;5052329;28;20052;-71
2022/03/13 05:22:05;;;;;;;14.75;8.30;;;1.40;99.70;;;;;;5052191;28;20251;-72
2022/03/13 05:24:31;;;;;;;10.15;7.95;;;1.30;99.50;;;;;;5050936;28;20017;-71
2022/03/13 05:26:56;;;;;;;12.55;8.98;;;1.40;99.50;;;;;;5052283;28;20036;-72
2022/03/13 05:29:22;;;;;;;10.60;8.80;;;1.30;99.60;;;;;;5050394;28;20017;-72
2022/03/13 05:31:48;;;;;;;11.13;9.10;;;1.30;99.90;;;;;;5050819;28;20033;-73
2022/03/13 05:34:14;;;;;;;11.00;8.40;;;1.40;99.70;;;;;;5050357;28;20116;-72
2022/03/13 05:36:40;;;;;;;13.43;8.68;;;1.30;99.70;;;;;;5051900;28;20079;-72
2022/03/13 05:39:05;;;;;;;15.13;9.43;;;1.30;99.70;;;;;;5053107;28;20029;-72
2022/03/13 05:41:33;;;;;;;14.48;8.48;;;1.40;99.70;;;;;;5051616;28;20048;-73
2022/03/13 05:43:59;;;;;;;14.60;8.48;;;1.30;99.70;;;;;;5050253;28;20032;-72
2022/03/13 05:46:25;;;;;;;12.35;8.93;;;1.40;99.80;;;;;;5052726;28;20029;-71
2022/03/13 05:48:50;;;;;;;12.13;8.40;;;1.30;99.80;;;;;;5050505;28;20013;-73
2022/03/13 05:51:16;;;;;;;16.13;9.50;;;1.30;99.90;;;;;;5050142;28;20021;-71
2022/03/13 05:53:42;;;;;;;15.00;9.48;;;1.30;99.90;;;;;;5050706;28;20498;-72
2022/03/13 05:56:08;;;;;;;14.27;7.93;;;1.30;99.90;;;;;;5050867;28;20115;-71
2022/03/13 05:58:33;;;;;;;16.33;8.77;;;1.30;99.90;;;;;;5051825;28;20033;-73
2022/03/13 06:01:05;;;;;;;12.30;9.35;;;1.30;99.90;;;;;;5051698;28;20021;-73
2022/03/13 06:03:34;;;;;;;15.85;9.02;;;1.40;99.90;;;;;;5051479;28;20387;-72
2022/03/13 06:06:04;;;;;;;11.45;7.80;;;1.40;99.90;;;;;;5050568;28;20166;-73
2022/03/13 06:08:30;;;;;;;13.63;9.10;;;1.40;99.90;;;;;;5052923;28;20025;-72
2022/03/13 06:10:57;;;;;;;10.73;8.30;;;1.50;99.90;;;;;;5053730;28;20044;-73
2022/03/13 06:13:28;;;;;;;14.15;8.70;;;1.50;99.90;;;;;;5054047;28;20021;-72
2022/03/13 06:15:54;;;;;;;11.43;7.28;;;1.60;99.90;;;;;;5052981;28;20033;-72
2022/03/13 06:18:21;;;;;;;13.90;8.57;;;1.70;99.90;;;;;;5054340;28;20076;-71
2022/03/13 06:20:46;;;;;;;18.58;8.90;;;1.80;99.90;;;;;;5054537;28;20071;-74
2022/03/13 06:23:13;;;;;;;20.60;9.85;;;1.90;99.90;;;;;;5046293;28;20029;-72
2022/03/13 06:25:38;;;;;;;15.77;9.02;;;1.90;99.80;;;;;;5049418;28;20075;-72
2022/03/13 06:28:04;;;;;;;15.07;8.85;;;2.00;99.80;;;;;;5051211;28;20425;-72
2022/03/13 06:30:31;;;;;;;14.95;8.55;;;2.10;99.90;;;;;;5050898;28;20029;-72
2022/03/13 06:32:56;;;;;;;16.05;8.88;;;2.20;99.80;;;;;;5051029;28;20017;-72
2022/03/13 06:35:23;;;;;;;17.00;9.15;;;2.30;99.70;;;;;;5049455;28;20153;-72
2022/03/13 06:37:51;;;;;;;11.23;7.43;;;2.30;99.50;;;;;;5049962;28;20048;-72
2022/03/13 06:40:19;;;;;;;12.60;9.35;;;2.40;99.40;;;;;;5049216;28;20025;-73
2022/03/13 06:42:46;;;;;;;14.75;8.02;;;2.50;99.30;;;;;;5050727;28;20017;-72
2022/03/13 06:45:12;;;;;;;12.73;9.73;;;2.60;99.30;;;;;;5049079;28;20032;-73
2022/03/13 06:47:39;;;;;;;14.85;8.90;;;2.70;99.40;;;;;;5050221;28;20025;-72
2022/03/13 06:50:06;;;;;;;14.82;7.85;;;2.80;99.20;;;;;;5050845;28;20033;-72
2022/03/13 06:52:32;;;;;;;13.35;9.57;;;2.90;99.00;;;;;;5049787;28;20025;-72
2022/03/13 06:54:58;;;;;;;15.82;9.43;;;3.00;99.10;;;;;;5049889;28;20474;-72
2022/03/13 06:57:24;;;;;;;11.43;8.95;;;3.20;99.00;;;;;;5054262;28;20404;-73
2022/03/13 06:59:49;;;;;;;12.07;8.38;;;3.30;99.00;;;;;;5059241;28;20021;-72
2022/03/13 07:02:15;;;;;;;13.48;8.52;;;3.50;98.80;;;;;;5057981;28;20021;-74
2022/03/13 07:04:41;;;;;;;11.10;8.00;;;3.60;98.60;;;;;;5051313;28;20033;-74
2022/03/13 07:07:07;;;;;;;16.25;8.52;;;3.70;98.40;;;;;;5049923;28;20380;-74
2022/03/13 07:09:33;;;;;;;11.20;7.85;;;3.90;98.60;;;;;;5065850;28;20025;-73
2022/03/13 07:11:59;;;;;;;11.68;8.45;;;4.00;98.50;;;;;;5049437;28;20037;-73
2022/03/13 07:14:25;;;;;;;13.35;8.90;;;4.20;98.50;;;;;;5049744;28;20036;-73
2022/03/13 07:16:51;;;;;;;12.13;9.73;;;4.30;98.50;;;;;;5051508;28;20029;-73
2022/03/13 07:19:17;;;;;;;14.73;9.25;;;4.30;98.20;;;;;;5053566;28;20037;-72
2022/03/13 07:21:43;;;;;;;15.60;10.15;;;4.50;98.20;;;;;;5050426;28;20029;-73
2022/03/13 07:24:10;;;;;;;13.05;8.40;;;4.60;97.80;;;;;;5051301;28;20021;-73
2022/03/13 07:26:36;;;;;;;12.75;10.18;;;4.70;97.70;;;;;;5051403;28;20017;-73
2022/03/13 07:29:02;;;;;;;14.05;9.50;;;4.90;97.70;;;;;;5050885;28;20112;-73
2022/03/13 07:31:31;;;;;;;15.68;8.38;;;4.90;97.70;;;;;;5050459;28;20043;-75
2022/03/13 07:33:58;;;;;;;11.18;8.65;;;5.10;97.90;;;;;;5048769;28;20185;-73
2022/03/13 07:36:24;;;;;;;10.38;9.10;;;5.30;97.80;;;;;;5058514;28;20431;-73
2022/03/13 07:38:50;;;;;;;9.73;7.80;;;5.40;97.70;;;;;;5066013;28;20067;-74
2022/03/13 07:41:16;;;;;;;10.05;8.20;;;5.50;97.50;;;;;;5048907;28;20463;-71
2022/03/13 07:43:42;;;;;;;17.55;10.20;;;5.60;97.60;;;;;;5065393;28;20021;-73
2022/03/13 07:46:08;;;;;;;13.55;9.38;;;5.60;97.50;;;;;;5048496;28;20379;-74
2022/03/13 07:48:34;;;;;;;12.77;10.18;;;5.90;97.60;;;;;;5049135;28;20498;-74
2022/03/13 07:51:04;;;;;;;13.10;8.57;;;6.00;97.40;;;;;;5051500;28;20021;-75
2022/03/13 07:53:30;;;;;;;13.15;9.43;;;6.10;97.30;;;;;;5066954;28;20032;-74
2022/03/13 07:55:56;;;;;;;12.82;9.38;;;6.30;96.60;;;;;;5048858;28;20025;-75
2022/03/13 07:58:22;;;;;;;12.25;8.73;;;6.40;96.50;;;;;;5049954;28;20021;-75
2022/03/13 08:00:49;;;;;;;13.05;10.02;;;6.50;96.30;;;;;;5049347;28;20660;-76
2022/03/13 08:03:16;;;;;;;12.32;9.48;;;6.50;96.80;;;;;;5050285;28;20471;-76
2022/03/13 08:05:42;;;;;;;14.02;7.45;;;6.60;96.40;;;;;;5050747;28;20095;-75
2022/03/13 08:08:08;;;;;;;16.08;9.30;;;6.70;96.00;;;;;;5049042;28;20440;-75
2022/03/13 08:10:34;;;;;;;10.52;8.45;;;6.90;95.90;;;;;;5047345;28;20033;-74
2022/03/13 08:13:03;;;;;;;11.40;8.35;;;6.90;95.90;;;;;;5047431;28;20021;-73
2022/03/13 08:15:29;;;;;;;10.85;8.00;;;7.00;95.90;;;;;;5047735;28;20474;-76
2022/03/13 08:17:54;;;;;;;13.95;8.18;;;7.20;95.20;;;;;;5048674;28;20052;-74
2022/03/13 08:20:20;;;;;;;10.20;7.45;;;7.30;95.40;;;;;;5051570;28;20032;-74
2022/03/13 08:22:46;;;;;;;11.70;7.20;;;7.40;95.20;;;;;;5052772;28;20108;-74
2022/03/13 08:25:16;;;;;;;13.75;7.85;;;7.60;94.70;;;;;;5052646;28;20023;-75
2022/03/13 08:27:42;;;;;;;8.95;6.97;;;7.80;93.50;;;;;;5053429;28;20025;-74
2022/03/13 08:30:09;;;;;;;8.88;7.38;;;7.80;93.40;;;;;;5052068;28;20041;-74
2022/03/13 08:32:35;;;;;;;9.93;6.93;;;7.80;93.60;;;;;;5052775;28;20036;-74
2022/03/13 08:35:01;;;;;;;11.45;6.63;;;7.80;93.80;;;;;;5052580;28;20033;-75
2022/03/13 08:37:26;;;;;;;11.63;7.50;;;7.80;93.70;;;;;;5052638;28;20076;-73
2022/03/13 08:39:52;;;;;;;8.15;6.40;;;7.90;93.70;;;;;;5050065;28;20029;-73
2022/03/13 08:42:18;;;;;;;10.68;6.55;;;8.00;93.80;;;;;;5052198;28;20475;-74
2022/03/13 08:44:43;;;;;;;7.22;6.53;;;8.10;93.30;;;;;;5052182;28;20034;-73
2022/03/13 08:47:09;;;;;;;7.60;6.70;;;8.10;93.30;;;;;;5051904;28;20475;-66
2022/03/13 08:49:35;;;;;;;8.40;6.05;;;8.20;93.50;;;;;;5052293;28;20159;-69
2022/03/13 08:52:01;;;;;;;173.40;58.35;;;8.30;93.50;;;;;;5052305;28;20383;-69
2022/03/13 08:54:27;;;;;;;23.80;12.93;;;8.50;96.40;;;;;;5051116;28;20040;-70
2022/03/13 08:56:52;;;;;;;74.53;29.02;;;8.70;94.90;;;;;;5052172;28;20036;-70
2022/03/13 08:59:22;;;;;;;32.65;14.35;;;8.80;95.80;;;;;;5051952;28;20039;-70
2022/03/13 09:01:48;;;;;;;39.38;16.55;;;8.90;95.80;;;;;;5052054;28;20025;-71
2022/03/13 09:04:14;;;;;;;15.80;10.55;;;9.00;95.90;;;;;;5051053;28;20167;-70
2022/03/13 09:06:42;;;;;;;26.83;12.85;;;9.10;95.70;;;;;;5050945;28;20063;-70
2022/03/13 09:09:09;;;;;;;31.60;15.73;;;9.10;97.20;;;;;;5050662;28;20115;-69
2022/03/13 09:11:35;;;;;;;25.42;11.80;;;9.10;99.70;;;;;;5052149;28;20028;-70
2022/03/13 09:14:01;;;;;;;20.67;11.10;;;9.00;99.50;;;;;;5052237;28;20036;-68
2022/03/13 09:16:27;;;;;;;11.93;9.63;;;9.00;98.20;;;;;;5051113;28;20025;-68
2022/03/13 09:18:53;;;;;;;13.70;10.80;;;8.90;98.40;;;;;;5052363;28;20048;-68
2022/03/13 09:21:19;;;;;;;10.77;8.85;;;8.60;99.30;;;;;;5053275;28;20394;-68
2022/03/13 09:23:45;;;;;;;11.23;10.00;;;8.40;99.20;;;;;;5053451;28;20104;-67
2022/03/13 09:26:10;;;;;;;13.75;10.93;;;8.20;99.90;;;;;;5052042;28;20025;-66
2022/03/13 09:28:37;;;;;;;11.50;9.27;;;8.20;99.90;;;;;;5052068;28;20025;-67
2022/03/13 09:31:04;;;;;;;14.60;8.15;;;8.20;99.90;;;;;;5051168;28;20108;-67
2022/03/13 09:33:30;;;;;;;14.80;9.40;;;8.20;99.90;;;;;;5050719;28;20064;-68
2022/03/13 09:35:55;;;;;;;9.18;8.23;;;8.20;99.90;;;;;;5052026;28;20053;-66
2022/03/13 09:38:21;;;;;;;10.73;9.13;;;8.20;99.90;;;;;;5050253;28;20111;-67
2022/03/13 09:40:47;;;;;;;11.48;9.38;;;8.20;99.90;;;;;;5052205;28;20025;-69
2022/03/13 09:43:12;;;;;;;11.07;8.00;;;8.10;99.20;;;;;;5067662;28;20021;-67
2022/03/13 09:45:38;;;;;;;13.23;8.68;;;8.10;99.60;;;;;;5052138;28;20033;-67
2022/03/13 09:48:08;;;;;;;9.90;8.82;;;8.10;99.80;;;;;;5041935;28;20113;-70
2022/03/13 09:50:34;;;;;;;11.48;8.15;;;8.20;99.90;;;;;;5043353;28;20049;-67
2022/03/13 09:53:00;;;;;;;10.90;8.85;;;8.20;99.80;;;;;;5041482;28;20529;-67
2022/03/13 09:55:27;;;;;;;11.38;8.27;;;8.20;99.90;;;;;;5044578;28;20025;-68
2022/03/13 09:57:52;;;;;;;12.88;8.40;;;8.10;99.40;;;;;;5042406;28;20025;-68
2022/03/13 10:00:21;;;;;;;9.45;8.45;;;8.10;99.60;;;;;;5046444;28;20029;-69
2022/03/13 10:02:48;;;;;;;10.88;7.55;;;8.20;99.40;;;;;;5044193;28;20074;-69
2022/03/13 10:05:16;;;;;;;14.32;9.02;;;8.30;99.50;;;;;;5042177;28;20117;-68
2022/03/13 10:08:01;;;;;;;9.95;7.18;;;8.30;99.00;;;;;;5042171;28;20104;-67
2022/03/13 10:10:28;;;;;;;8.15;6.88;;;8.40;98.50;;;;;;5043514;28;20029;-68
2022/03/13 10:12:55;;;;;;;8.60;6.93;;;8.40;98.00;;;;;;5044109;28;20013;-69
2022/03/13 10:15:21;;;;;;;11.60;8.13;;;8.40;98.00;;;;;;5047424;28;20037;-68
2022/03/13 10:17:48;;;;;;;11.88;7.68;;;8.40;98.10;;;;;;5040863;28;20033;-67
2022/03/13 10:20:24;;;;;;;8.45;7.55;;;8.40;97.80;;;;;;5040576;28;20059;-68
2022/03/13 10:23:00;;;;;;;11.93;7.65;;;8.50;97.90;;;;;;5042565;28;20153;-71
2022/03/13 10:25:31;;;;;;;10.40;7.68;;;8.40;97.80;;;;;;5045019;28;20471;-68
2022/03/13 10:28:30;;;;;;;8.18;6.78;;;8.60;98.20;;;;;;5038238;28;20024;-67
2022/03/13 10:30:59;;;;;;;12.30;8.73;;;8.70;98.50;;;;;;5039805;28;20058;-68
2022/03/13 10:33:44;;;;;;;8.73;6.15;;;8.80;98.40;;;;;;5042578;28;20580;-67
2022/03/13 10:36:12;;;;;;;8.27;7.32;;;8.80;98.80;;;;;;5039179;28;20025;-69
2022/03/13 10:38:39;;;;;;;7.55;6.55;;;8.60;98.90;;;;;;5043100;28;20025;-69
2022/03/13 10:41:09;;;;;;;10.73;6.75;;;8.70;98.70;;;;;;5031446;28;20030;-69
2022/03/13 10:43:46;;;;;;;9.30;6.97;;;8.70;98.40;;;;;;5036391;28;20025;-67
2022/03/13 10:46:36;;;;;;;7.88;6.13;;;8.70;98.30;;;;;;5031758;28;20026;-68
2022/03/13 10:49:04;;;;;;;12.35;6.97;;;8.70;98.00;;;;;;5041917;28;20021;-68
2022/03/13 10:51:39;;;;;;;10.50;8.13;;;8.70;98.00;;;;;;5047403;28;20029;-67
2022/03/13 10:54:08;;;;;;;10.10;5.65;;;8.70;98.50;;;;;;5038569;28;20090;-68
2022/03/13 10:56:34;;;;;;;6.63;5.90;;;8.60;98.60;;;;;;5036522;28;20075;-68
2022/03/13 10:59:17;;;;;;;9.40;4.60;;;8.70;99.60;;;;;;5040758;28;20030;-67
2022/03/13 11:01:43;;;;;;;20.65;6.50;;;8.80;99.80;;;;;;5041418;28;20451;-67
2022/03/13 11:04:09;;;;;;;7.03;5.18;;;9.00;99.60;;;;;;5037841;28;20053;-68
2022/03/13 11:06:35;;;;;;;5.95;4.63;;;9.00;99.10;;;;;;5034668;28;20040;-68
2022/03/13 11:09:01;;;;;;;5.63;4.93;;;9.00;99.00;;;;;;5041255;28;20013;-68
2022/03/13 11:11:28;;;;;;;6.55;5.38;;;9.00;99.10;;;;;;5041641;28;20062;-67
2022/03/13 11:14:01;;;;;;;9.73;6.97;;;9.10;99.60;;;;;;5039374;28;20448;-69
2022/03/13 11:16:32;;;;;;;8.35;5.80;;;9.20;99.90;;;;;;5045234;28;20391;-66
2022/03/13 11:19:05;;;;;;;7.40;6.07;;;9.10;99.90;;;;;;5038525;28;20051;-67
2022/03/13 11:21:32;;;;;;;10.00;6.97;;;9.10;99.90;;;;;;5040561;28;20124;-67
2022/03/13 11:24:00;;;;;;;8.50;5.00;;;9.20;99.90;;;;;;5037601;28;20028;-67
2022/03/13 11:26:30;;;;;;;5.20;4.70;;;9.20;99.90;;;;;;5038381;28;20024;-66
2022/03/13 11:28:58;;;;;;;13.55;6.30;;;9.10;99.90;;;;;;5042929;28;20032;-67
2022/03/13 11:31:30;;;;;;;5.78;4.20;;;9.10;99.90;;;;;;5039619;28;20104;-68
2022/03/13 11:34:18;;;;;;;10.70;6.55;;;9.00;99.90;;;;;;5043442;28;20122;-69
2022/03/13 11:36:49;;;;;;;6.55;4.63;;;9.00;99.90;;;;;;5044486;28;20076;-67
2022/03/13 11:39:31;;;;;;;6.22;5.07;;;8.90;99.90;;;;;;5041544;28;20112;-67
2022/03/13 11:41:58;;;;;;;5.40;4.60;;;9.00;99.90;;;;;;5039556;28;20083;-67
2022/03/13 11:44:25;;;;;;;9.63;5.93;;;8.90;99.90;;;;;;5043733;28;20033;-66
2022/03/13 11:46:53;;;;;;;10.02;6.60;;;8.90;99.90;;;;;;5037661;28;20018;-66
2022/03/13 11:49:31;;;;;;;5.15;4.65;;;9.00;99.90;;;;;;5041250;28;20040;-67
2022/03/13 11:52:12;;;;;;;8.80;4.25;;;9.20;99.90;;;;;;5044570;28;20032;-67
2022/03/13 11:54:52;;;;;;;6.35;4.00;;;9.20;99.90;;;;;;5045235;28;20033;-67
2022/03/13 11:57:20;;;;;;;5.95;4.97;;;9.20;99.90;;;;;;5038697;28;20033;-67
2022/03/13 11:59:48;;;;;;;5.32;4.40;;;9.30;99.90;;;;;;5039936;28;20108;-67
2022/03/13 12:02:41;;;;;;;9.15;5.25;;;9.20;99.90;;;;;;5035425;28;20476;-67
2022/03/13 12:05:30;;;;;;;5.53;4.45;;;9.30;99.90;;;;;;5044331;28;20028;-67
2022/03/13 12:08:05;;;;;;;5.80;4.53;;;9.30;99.90;;;;;;5039706;28;20034;-67
2022/03/13 12:10:41;;;;;;;6.88;4.20;;;9.40;99.90;;;;;;5041206;28;20472;-67
2022/03/13 12:13:18;;;;;;;6.80;4.70;;;9.60;99.90;;;;;;5046290;28;20036;-67
2022/03/13 12:15:45;;;;;;;7.22;4.88;;;9.50;99.90;;;;;;5045714;28;20021;-67
2022/03/13 12:18:16;;;;;;;6.28;4.53;;;9.60;99.90;;;;;;5053329;28;20029;-66
2022/03/13 12:20:43;;;;;;;9.15;5.72;;;9.50;99.90;;;;;;5033365;28;20116;-67
2022/03/13 12:23:09;;;;;;;6.95;4.57;;;9.40;99.90;;;;;;5032159;28;20022;-68
2022/03/13 12:25:35;;;;;;;6.53;4.65;;;9.50;99.90;;;;;;5043748;28;20032;-68
2022/03/13 12:28:01;;;;;;;5.82;5.10;;;9.40;99.90;;;;;;5053514;28;20022;-66
2022/03/13 12:30:34;;;;;;;7.35;5.18;;;9.40;99.90;;;;;;5052511;28;20090;-68
2022/03/13 12:33:02;;;;;;;4.63;3.92;;;9.50;99.90;;;;;;5047830;28;20170;-67
2022/03/13 12:35:28;;;;;;;6.90;5.65;;;9.50;99.90;;;;;;5052006;28;20094;-67
2022/03/13 12:38:01;;;;;;;5.20;4.60;;;9.60;99.90;;;;;;5033432;28;20025;-67
2022/03/13 12:40:30;;;;;;;5.60;5.10;;;9.80;99.90;;;;;;5032573;28;20062;-66
2022/03/13 12:42:58;;;;;;;8.75;4.15;;;9.80;99.90;;;;;;5049305;28;20390;-67
2022/03/13 12:45:24;;;;;;;4.97;4.00;;;9.40;99.90;;;;;;5052910;28;20044;-66
2022/03/13 12:47:55;;;;;;;7.75;6.03;;;9.50;99.90;;;;;;5053524;28;20025;-67
2022/03/13 12:50:26;;;;;;;6.80;4.82;;;9.60;99.90;;;;;;5051974;28;20025;-68